Tomi II — YT2177 — position and weather

sailwx.info

Track history (hours):
 
Tides and Currents Weather Stations Pressure Air Temp Water Temp Dewpoint Dewpoint Depression Visibility Wind Speed Wind Dir Waves Ship Positions

Tomi II

Last reported at 2017-Dec-11 15:43 UTC. Time now 2017-Dec-13 13:15 UTC.
Position N 44°41' E 020°57'.

Length 25 m; draft 1.1 m.

Type: Cargo ship. MMSI: 279202177.

Date/timePositionNaut miles runAvg speedWind from/ knotsBaromVisibWave heightAir tempDewpointWater temp
2017-Dec-11 15:43N 44°41' E 020°57'0 0.3
2017-Dec-11 15:30N 44°41' E 020°57'2 3.1
2017-Dec-11 15:01N 44°40' E 020°55'1 1.5
2017-Dec-11 14:31N 44°41' E 020°56'1 2.6
2017-Dec-11 14:01N 44°42' E 020°57'0 0.6
2017-Dec-11 13:30N 44°41' E 020°57'0 0.0
2017-Dec-11 13:00N 44°41' E 020°57'0 0.0
2017-Dec-10 21:11N 44°41' E 020°57'1 4.1
2017-Dec-10 21:00N 44°42' E 020°57'1 1.2
2017-Dec-10 20:30N 44°42' E 020°58'1 0.6
2017-Dec-10 18:11N 44°41' E 020°57'1 4.5
2017-Dec-10 18:00N 44°42' E 020°58'1 1.1
2017-Dec-10 17:31N 44°42' E 020°58'1 1.0
2017-Dec-10 17:00N 44°42' E 020°58'1 0.3
2017-Dec-10 13:41N 44°41' E 020°57'1 5.7
2017-Dec-10 13:31N 44°40' E 020°56'1 0.4
2017-Dec-10 11:59N 44°40' E 020°55'2 1.7
2017-Dec-10 10:56N 44°41' E 020°57'1 2.2
2017-Dec-10 10:31N 44°42' E 020°58'0 0.1
2017-Dec-10 09:59N 44°42' E 020°58'1 0.1
2017-Dec-10 00:13N 44°41' E 020°57'1 3.3
2017-Dec-10 00:00N 44°42' E 020°58'0 0.3
2017-Dec-09 23:29N 44°42' E 020°58'0 0.3
2017-Dec-09 23:01N 44°42' E 020°58'1 0.4
2017-Dec-09 20:49N 44°41' E 020°57'1 2.9
2017-Dec-09 20:31N 44°42' E 020°58'0 0.1
2017-Dec-09 20:00N 44°42' E 020°58'1 1.8
2017-Dec-09 19:30N 44°41' E 020°57'0 0.0
2017-Dec-09 17:34N 44°41' E 020°57'0 1.1
2017-Dec-09 17:30N 44°41' E 020°57'0 0.0
2017-Dec-09 15:03N 44°41' E 020°57'0 0.9
2017-Dec-09 15:00N 44°41' E 020°57'0 0.5
2017-Dec-09 14:30N 44°41' E 020°57'0 0.3
2017-Dec-09 14:00N 44°41' E 020°57'0 1.0
2017-Dec-09 13:30N 44°41' E 020°57'1 2.1
2017-Dec-09 13:01N 44°42' E 020°58'0 0.6
2017-Dec-09 12:31N 44°42' E 020°57'0 0.1
2017-Dec-09 11:12N 44°42' E 020°58'1 2.6
2017-Dec-09 11:00N 44°41' E 020°57'0 0.2
2017-Dec-09 09:03N 44°41' E 020°57'0 3.7
2017-Dec-09 08:57N 44°41' E 020°57'1 1.2
2017-Dec-09 08:24N 44°42' E 020°58'0 0.3
2017-Dec-09 08:00N 44°42' E 020°58'0 0.0
2017-Dec-09 02:45N 44°42' E 020°58'0 0.9
2017-Dec-09 02:31N 44°42' E 020°58'1 0.3
2017-Dec-08 23:41N 44°41' E 020°57'1 3.8
2017-Dec-08 23:30N 44°42' E 020°57'0 1.0
2017-Dec-08 23:01N 44°42' E 020°58'1 2.2
2017-Dec-08 22:30N 44°41' E 020°57'0 0.0
2017-Dec-08 20:16N 44°41' E 020°57'1 3.4
2017-Dec-08 20:00N 44°42' E 020°58'0 0.3
2017-Dec-08 19:30N 44°42' E 020°57'1 0.6
2017-Dec-08 18:14N 44°41' E 020°57'0 1.2
2017-Dec-08 18:00N 44°41' E 020°57'0 0.2
2017-Dec-08 17:30N 44°41' E 020°57'0 0.4
2017-Dec-08 16:35N 44°41' E 020°57'0 0.1
2017-Dec-08 16:00N 44°41' E 020°57'1 2.1
2017-Dec-08 15:31N 44°42' E 020°58'0 0.0
2017-Dec-08 13:16N 44°42' E 020°58'0 0.9
2017-Dec-08 13:01N 44°42' E 020°58'0 0.1
2017-Dec-08 12:30N 44°42' E 020°58'1 0.4
2017-Dec-08 10:06N 44°41' E 020°57'0 3.2
2017-Dec-08 10:00N 44°41' E 020°57'0 0.3
2017-Dec-08 09:30N 44°41' E 020°57'0 0.1
2017-Dec-08 07:58N 44°41' E 020°57'1 1.8
2017-Dec-08 07:31N 44°42' E 020°58'2 2.4
2017-Dec-08 06:44N 44°41' E 020°56'2 5.1
2017-Dec-08 06:20N 44°40' E 020°53'1 2.7
2017-Dec-08 06:00N 44°40' E 020°55'2 0.2
2017-Dec-07 18:51N 44°41' E 020°57'0 0.0
2017-Dec-07 16:27N 44°41' E 020°57'1 0.2
2017-Dec-07 13:00N 44°41' E 020°56'1 0.5
2017-Dec-07 10:55N 44°41' E 020°57'1 1.6
2017-Dec-07 10:31N 44°42' E 020°57'1 1.0
2017-Dec-07 09:46N 44°41' E 020°57'  
2017-Dec-03 21:55N 44°40' E 020°55'1 1.3
2017-Dec-03 21:31N 44°40' E 020°56'1 2.3
2017-Dec-03 21:01N 44°41' E 020°57'0 0.0
2017-Dec-03 12:36N 44°41' E 020°57'0 3.3
2017-Dec-03 12:31N 44°41' E 020°57'1 1.7
2017-Dec-03 12:01N 44°42' E 020°58'0 0.8
2017-Dec-03 11:30N 44°42' E 020°57'0 0.1
2017-Dec-03 09:09N 44°41' E 020°57'0 3.2
2017-Dec-03 09:01N 44°42' E 020°58'0 0.1
2017-Dec-03 01:45N 44°42' E 020°57'0 1.9
2017-Dec-03 01:30N 44°42' E 020°58'1 0.1
2017-Dec-02 19:12N 44°41' E 020°57'1 5.3
2017-Dec-02 19:00N 44°40' E 020°56'0 0.3
2017-Dec-02 18:30N 44°40' E 020°56'1 2.3
2017-Dec-02 18:01N 44°41' E 020°57'0 0.1
2017-Dec-02 12:36N 44°41' E 020°57'0 0.3
2017-Dec-02 12:09N 44°41' E 020°57'0 1.1
2017-Dec-02 11:54N 44°41' E 020°57'0 0.2
2017-Dec-02 10:45N 44°41' E 020°57'0 1.4
2017-Dec-02 10:30N 44°42' E 020°57'0 0.2
2017-Dec-02 09:56N 44°42' E 020°58'0 0.2
2017-Dec-02 08:50N 44°42' E 020°58'1 1.9
2017-Dec-02 08:26N 44°41' E 020°57'1 1.4
2017-Dec-02 08:00N 44°42' E 020°57'0 0.3
2017-Dec-02 07:30N 44°42' E 020°58'0 0.0
2017-Dec-02 07:00N 44°42' E 020°58'0 0.3
2017-Dec-02 06:29N 44°42' E 020°57'0 0.1
2017-Dec-01 23:23N 44°41' E 020°57'1 1.8
2017-Dec-01 23:00N 44°42' E 020°58'0 0.3
2017-Dec-01 22:28N 44°42' E 020°58'1 0.3
2017-Dec-01 19:36N 44°41' E 020°57'0 2.9
2017-Dec-01 19:30N 44°41' E 020°57'1 1.8
2017-Dec-01 19:00N 44°42' E 020°58'0 0.4
2017-Dec-01 18:31N 44°42' E 020°58'1 0.5
2017-Dec-01 16:40N 44°41' E 020°57'0 1.2
2017-Dec-01 16:20N 44°41' E 020°56'1 3.4
2017-Dec-01 16:01N 44°40' E 020°55'  
Track history (hours):
 
Tides and Currents Weather Stations Pressure Air Temp Water Temp Dewpoint Dewpoint Depression Visibility Wind Speed Wind Dir Waves Ship Positions

Tomi II

Last reported at 2017-Dec-11 15:43 UTC. Time now 2017-Dec-13 13:15 UTC.
Position N 44°41' E 020°57'.

Length 25 m; draft 1.1 m.

Type: Cargo ship. MMSI: 279202177.

Date/timePositionNaut miles runAvg speedWind from/ knotsBaromVisibWave heightAir tempDewpointWater temp
2017-Dec-11 15:43N 44°41' E 020°57'0 0.3
2017-Dec-11 15:30N 44°41' E 020°57'2 3.1
2017-Dec-11 15:01N 44°40' E 020°55'1 1.5
2017-Dec-11 14:31N 44°41' E 020°56'1 2.6
2017-Dec-11 14:01N 44°42' E 020°57'0 0.6
2017-Dec-11 13:30N 44°41' E 020°57'0 0.0
2017-Dec-11 13:00N 44°41' E 020°57'0 0.0
2017-Dec-10 21:11N 44°41' E 020°57'1 4.1
2017-Dec-10 21:00N 44°42' E 020°57'1 1.2
2017-Dec-10 20:30N 44°42' E 020°58'1 0.6
2017-Dec-10 18:11N 44°41' E 020°57'1 4.5
2017-Dec-10 18:00N 44°42' E 020°58'1 1.1
2017-Dec-10 17:31N 44°42' E 020°58'1 1.0
2017-Dec-10 17:00N 44°42' E 020°58'1 0.3
2017-Dec-10 13:41N 44°41' E 020°57'1 5.7
2017-Dec-10 13:31N 44°40' E 020°56'1 0.4
2017-Dec-10 11:59N 44°40' E 020°55'2 1.7
2017-Dec-10 10:56N 44°41' E 020°57'1 2.2
2017-Dec-10 10:31N 44°42' E 020°58'0 0.1
2017-Dec-10 09:59N 44°42' E 020°58'1 0.1
2017-Dec-10 00:13N 44°41' E 020°57'1 3.3
2017-Dec-10 00:00N 44°42' E 020°58'0 0.3
2017-Dec-09 23:29N 44°42' E 020°58'0 0.3
2017-Dec-09 23:01N 44°42' E 020°58'1 0.4
2017-Dec-09 20:49N 44°41' E 020°57'1 2.9
2017-Dec-09 20:31N 44°42' E 020°58'0 0.1
2017-Dec-09 20:00N 44°42' E 020°58'1 1.8
2017-Dec-09 19:30N 44°41' E 020°57'0 0.0
2017-Dec-09 17:34N 44°41' E 020°57'0 1.1
2017-Dec-09 17:30N 44°41' E 020°57'0 0.0
2017-Dec-09 15:03N 44°41' E 020°57'0 0.9
2017-Dec-09 15:00N 44°41' E 020°57'0 0.5
2017-Dec-09 14:30N 44°41' E 020°57'0 0.3
2017-Dec-09 14:00N 44°41' E 020°57'0 1.0
2017-Dec-09 13:30N 44°41' E 020°57'1 2.1
2017-Dec-09 13:01N 44°42' E 020°58'0 0.6
2017-Dec-09 12:31N 44°42' E 020°57'0 0.1
2017-Dec-09 11:12N 44°42' E 020°58'1 2.6
2017-Dec-09 11:00N 44°41' E 020°57'0 0.2
2017-Dec-09 09:03N 44°41' E 020°57'0 3.7
2017-Dec-09 08:57N 44°41' E 020°57'1 1.2
2017-Dec-09 08:24N 44°42' E 020°58'0 0.3
2017-Dec-09 08:00N 44°42' E 020°58'0 0.0
2017-Dec-09 02:45N 44°42' E 020°58'0 0.9
2017-Dec-09 02:31N 44°42' E 020°58'1 0.3
2017-Dec-08 23:41N 44°41' E 020°57'1 3.8
2017-Dec-08 23:30N 44°42' E 020°57'0 1.0
2017-Dec-08 23:01N 44°42' E 020°58'1 2.2
2017-Dec-08 22:30N 44°41' E 020°57'0 0.0
2017-Dec-08 20:16N 44°41' E 020°57'1 3.4
2017-Dec-08 20:00N 44°42' E 020°58'0 0.3
2017-Dec-08 19:30N 44°42' E 020°57'1 0.6
2017-Dec-08 18:14N 44°41' E 020°57'0 1.2
2017-Dec-08 18:00N 44°41' E 020°57'0 0.2
2017-Dec-08 17:30N 44°41' E 020°57'0 0.4
2017-Dec-08 16:35N 44°41' E 020°57'0 0.1
2017-Dec-08 16:00N 44°41' E 020°57'1 2.1
2017-Dec-08 15:31N 44°42' E 020°58'0 0.0
2017-Dec-08 13:16N 44°42' E 020°58'0 0.9
2017-Dec-08 13:01N 44°42' E 020°58'0 0.1
2017-Dec-08 12:30N 44°42' E 020°58'1 0.4
2017-Dec-08 10:06N 44°41' E 020°57'0 3.2
2017-Dec-08 10:00N 44°41' E 020°57'0 0.3
2017-Dec-08 09:30N 44°41' E 020°57'0 0.1
2017-Dec-08 07:58N 44°41' E 020°57'1 1.8
2017-Dec-08 07:31N 44°42' E 020°58'2 2.4
2017-Dec-08 06:44N 44°41' E 020°56'2 5.1
2017-Dec-08 06:20N 44°40' E 020°53'1 2.7
2017-Dec-08 06:00N 44°40' E 020°55'2 0.2
2017-Dec-07 18:51N 44°41' E 020°57'0 0.0
2017-Dec-07 16:27N 44°41' E 020°57'1 0.2
2017-Dec-07 13:00N 44°41' E 020°56'1 0.5
2017-Dec-07 10:55N 44°41' E 020°57'1 1.6
2017-Dec-07 10:31N 44°42' E 020°57'1 1.0
2017-Dec-07 09:46N 44°41' E 020°57'  
2017-Dec-03 21:55N 44°40' E 020°55'1 1.3
2017-Dec-03 21:31N 44°40' E 020°56'1 2.3
2017-Dec-03 21:01N 44°41' E 020°57'0 0.0
2017-Dec-03 12:36N 44°41' E 020°57'0 3.3
2017-Dec-03 12:31N 44°41' E 020°57'1 1.7
2017-Dec-03 12:01N 44°42' E 020°58'0 0.8
2017-Dec-03 11:30N 44°42' E 020°57'0 0.1
2017-Dec-03 09:09N 44°41' E 020°57'0 3.2
2017-Dec-03 09:01N 44°42' E 020°58'0 0.1
2017-Dec-03 01:45N 44°42' E 020°57'0 1.9
2017-Dec-03 01:30N 44°42' E 020°58'1 0.1
2017-Dec-02 19:12N 44°41' E 020°57'1 5.3
2017-Dec-02 19:00N 44°40' E 020°56'0 0.3
2017-Dec-02 18:30N 44°40' E 020°56'1 2.3
2017-Dec-02 18:01N 44°41' E 020°57'0 0.1
2017-Dec-02 12:36N 44°41' E 020°57'0 0.3
2017-Dec-02 12:09N 44°41' E 020°57'0 1.1
2017-Dec-02 11:54N 44°41' E 020°57'0 0.2
2017-Dec-02 10:45N 44°41' E 020°57'0 1.4
2017-Dec-02 10:30N 44°42' E 020°57'0 0.2
2017-Dec-02 09:56N 44°42' E 020°58'0 0.2
2017-Dec-02 08:50N 44°42' E 020°58'1 1.9
2017-Dec-02 08:26N 44°41' E 020°57'1 1.4
2017-Dec-02 08:00N 44°42' E 020°57'0 0.3
2017-Dec-02 07:30N 44°42' E 020°58'0 0.0
2017-Dec-02 07:00N 44°42' E 020°58'0 0.3
2017-Dec-02 06:29N 44°42' E 020°57'0 0.1
2017-Dec-01 23:23N 44°41' E 020°57'1 1.8
2017-Dec-01 23:00N 44°42' E 020°58'0 0.3
2017-Dec-01 22:28N 44°42' E 020°58'1 0.3
2017-Dec-01 19:36N 44°41' E 020°57'0 2.9
2017-Dec-01 19:30N 44°41' E 020°57'1 1.8
2017-Dec-01 19:00N 44°42' E 020°58'0 0.4
2017-Dec-01 18:31N 44°42' E 020°58'1 0.5
2017-Dec-01 16:40N 44°41' E 020°57'0 1.2
2017-Dec-01 16:20N 44°41' E 020°56'1 3.4
2017-Dec-01 16:01N 44°40' E 020°55'  

Dump ship's entire track history